createdAt,value
2022-10-31T00:01:26.446Z,101511.09
2022-10-31T00:03:53.457Z,101516.00
2022-10-31T00:06:20.006Z,101510.97
2022-10-31T00:08:54.453Z,101515.91
2022-10-31T00:11:20.964Z,101510.84
2022-10-31T00:13:47.397Z,101513.31
2022-10-31T00:16:19.964Z,101513.44
2022-10-31T00:18:53.156Z,101513.00
2022-10-31T00:21:20.157Z,101515.31
2022-10-31T00:23:46.779Z,101510.63
2022-10-31T00:26:13.487Z,101515.59
2022-10-31T00:28:39.923Z,101511.22
2022-10-31T00:31:08.524Z,101509.44
2022-10-31T00:33:37.548Z,101510.63
2022-10-31T00:36:05.292Z,101515.47
2022-10-31T00:38:31.880Z,101505.84
2022-10-31T00:40:58.360Z,101505.94
2022-10-31T00:43:24.787Z,101511.28
2022-10-31T00:45:51.485Z,101508.69
2022-10-31T00:48:17.893Z,101509.56
2022-10-31T00:50:44.323Z,101507.56
2022-10-31T00:53:10.735Z,101508.00
2022-10-31T00:55:37.154Z,101513.59
2022-10-31T00:58:03.969Z,101506.47
2022-10-31T01:00:30.724Z,101509.03
2022-10-31T01:02:57.379Z,101506.13
2022-10-31T01:05:24.190Z,101505.59
2022-10-31T01:07:50.618Z,101514.41
2022-10-31T01:10:18.904Z,101513.22
2022-10-31T01:12:47.824Z,101516.91
2022-10-31T01:15:18.311Z,101512.91
2022-10-31T01:17:45.132Z,101513.34
2022-10-31T01:20:13.732Z,101506.66
2022-10-31T01:22:40.395Z,101509.69
2022-10-31T01:25:08.443Z,101513.63
2022-10-31T01:27:35.065Z,101516.03
2022-10-31T01:30:01.600Z,101508.00
2022-10-31T01:32:29.823Z,101514.94
2022-10-31T01:34:56.340Z,101507.66
2022-10-31T01:37:22.801Z,101501.94
2022-10-31T01:39:49.492Z,101500.94
2022-10-31T01:42:21.771Z,101491.81
2022-10-31T01:44:57.700Z,101497.25
2022-10-31T01:47:38.346Z,101496.38
2022-10-31T01:50:11.709Z,101493.97
2022-10-31T01:52:43.823Z,101494.41
2022-10-31T01:55:18.302Z,101491.22
2022-10-31T01:57:48.046Z,101490.66
2022-10-31T02:00:15.796Z,101488.84
2022-10-31T02:02:43.401Z,101492.22
2022-10-31T02:05:15.615Z,101497.06
2022-10-31T02:08:03.915Z,101498.88
2022-10-31T02:10:33.530Z,101493.72
2022-10-31T02:13:03.599Z,101494.34
2022-10-31T02:15:31.491Z,101481.31
2022-10-31T02:17:58.332Z,101480.72
2022-10-31T02:20:30.396Z,101479.50
2022-10-31T02:23:08.638Z,101480.56
2022-10-31T02:25:50.164Z,101479.03
2022-10-31T02:28:22.735Z,101477.19
2022-10-31T02:31:13.643Z,101477.97
2022-10-31T02:33:56.674Z,101482.69
2022-10-31T02:36:28.642Z,101477.19
2022-10-31T02:39:16.829Z,101478.59
2022-10-31T02:42:03.124Z,101473.28
2022-10-31T02:44:52.372Z,101478.31
2022-10-31T02:47:23.330Z,101476.47
2022-10-31T02:49:58.315Z,101472.69
2022-10-31T02:52:27.385Z,101471.19
2022-10-31T02:54:54.527Z,101470.13
2022-10-31T02:57:26.286Z,101469.81
2022-10-31T02:59:58.582Z,101478.88
2022-10-31T03:02:43.763Z,101472.81
2022-10-31T03:05:36.847Z,101477.19
2022-10-31T03:08:03.191Z,101474.31
2022-10-31T03:10:35.472Z,101477.34
2022-10-31T03:13:16.006Z,101477.16
2022-10-31T03:15:46.029Z,101483.69
2022-10-31T03:18:34.498Z,101478.69
2022-10-31T03:21:13.364Z,101476.28
2022-10-31T03:23:41.342Z,101478.25
2022-10-31T03:26:10.396Z,101477.97
2022-10-31T03:28:47.108Z,101476.31
2022-10-31T03:31:18.467Z,101480.84
2022-10-31T03:33:46.009Z,101476.31
2022-10-31T03:36:16.507Z,101483.75
2022-10-31T03:38:46.041Z,101486.16
2022-10-31T03:41:17.381Z,101486.19
2022-10-31T03:43:47.954Z,101488.88
2022-10-31T03:46:14.550Z,101494.38
2022-10-31T03:48:41.008Z,101487.97
2022-10-31T03:51:26.903Z,101487.25
2022-10-31T03:54:02.966Z,101493.13
2022-10-31T03:56:50.731Z,101487.69
2022-10-31T03:59:43.297Z,101496.50
2022-10-31T04:02:19.621Z,101496.19
2022-10-31T04:04:47.648Z,101494.03
2022-10-31T04:07:14.938Z,101493.09
2022-10-31T04:09:45.954Z,101499.75
2022-10-31T04:12:16.640Z,101498.53
2022-10-31T04:14:47.596Z,101497.97
2022-10-31T04:17:17.347Z,101497.97
2022-10-31T04:19:43.822Z,101496.63
2022-10-31T04:22:10.515Z,101495.72
2022-10-31T04:24:40.317Z,101494.66
2022-10-31T04:27:06.892Z,101496.19
2022-10-31T04:29:33.332Z,101499.22
2022-10-31T04:31:59.731Z,101495.13
2022-10-31T04:34:26.144Z,101498.28
2022-10-31T04:36:52.542Z,101498.31
2022-10-31T04:39:22.791Z,101495.56
2022-10-31T04:41:53.310Z,101497.69
2022-10-31T04:44:19.804Z,101491.63
2022-10-31T04:46:46.260Z,101489.97
2022-10-31T04:49:12.769Z,101492.09
2022-10-31T04:51:39.218Z,101492.25
2022-10-31T04:54:05.720Z,101491.34
2022-10-31T04:56:32.151Z,101498.00
2022-10-31T04:58:58.612Z,101483.13
2022-10-31T05:01:25.135Z,101487.38
2022-10-31T05:03:51.665Z,101489.81
2022-10-31T05:06:18.450Z,101486.16
2022-10-31T05:08:44.874Z,101488.59
2022-10-31T05:11:11.973Z,101482.69
2022-10-31T05:13:38.509Z,101488.75
2022-10-31T05:16:05.207Z,101490.56
2022-10-31T05:18:31.626Z,101490.53
2022-10-31T05:20:58.040Z,101495.13
2022-10-31T05:23:24.524Z,101489.19
2022-10-31T05:25:51.046Z,101490.53
2022-10-31T05:28:17.468Z,101481.88
2022-10-31T05:30:43.889Z,101484.28
2022-10-31T05:33:10.323Z,101484.28
2022-10-31T05:35:36.772Z,101483.25
2022-10-31T05:38:03.260Z,101478.25
2022-10-31T05:40:29.947Z,101481.28
2022-10-31T05:42:59.572Z,101475.53
2022-10-31T05:45:26.682Z,101484.31
2022-10-31T05:47:58.748Z,101488.28
2022-10-31T05:50:27.187Z,101479.81
2022-10-31T05:53:01.734Z,101484.06
2022-10-31T05:55:29.459Z,101479.19
2022-10-31T05:57:56.347Z,101488.00
2022-10-31T06:00:24.049Z,101495.28
2022-10-31T06:02:50.525Z,101497.53
2022-10-31T06:05:17.555Z,101495.59
2022-10-31T06:07:44.072Z,101488.75
2022-10-31T06:10:10.751Z,101497.38
2022-10-31T06:12:38.606Z,101498.59
2022-10-31T06:15:06.707Z,101499.94
2022-10-31T06:17:35.356Z,101499.50
2022-10-31T06:20:02.064Z,101500.41
2022-10-31T06:22:28.875Z,101498.63
2022-10-31T06:24:55.573Z,101511.16
2022-10-31T06:27:22.045Z,101508.59
2022-10-31T06:29:48.563Z,101509.22
2022-10-31T06:32:15.557Z,101508.00
2022-10-31T06:34:43.106Z,101510.41
2022-10-31T06:37:11.479Z,101510.72
2022-10-31T06:39:37.986Z,101510.28
2022-10-31T06:42:05.048Z,101510.09
2022-10-31T06:44:31.821Z,101514.66
2022-10-31T06:46:58.319Z,101510.72
2022-10-31T06:49:24.765Z,101515.28
2022-10-31T06:51:51.821Z,101520.28
2022-10-31T06:54:18.551Z,101528.28
2022-10-31T06:56:48.221Z,101529.19
2022-10-31T06:59:15.363Z,101528.28
2022-10-31T07:01:41.870Z,101539.38
2022-10-31T07:04:10.524Z,101533.78
2022-10-31T07:06:37.001Z,101540.88
2022-10-31T07:09:03.620Z,101544.38
2022-10-31T07:11:30.006Z,101551.94
2022-10-31T07:13:57.199Z,101557.97
2022-10-31T07:16:23.643Z,101549.78
2022-10-31T07:18:51.043Z,101557.34
2022-10-31T07:21:17.429Z,101550.72
2022-10-31T07:23:43.859Z,101555.09
2022-10-31T07:26:11.191Z,101560.06
2022-10-31T07:28:37.599Z,101563.53
2022-10-31T07:31:04.000Z,101569.13
2022-10-31T07:33:30.409Z,101564.81
2022-10-31T07:35:56.959Z,101574.22
2022-10-31T07:38:23.420Z,101573.25
2022-10-31T07:40:53.864Z,101574.13
2022-10-31T07:43:20.734Z,101570.31
2022-10-31T07:46:02.090Z,101566.03
2022-10-31T07:48:28.392Z,101572.16
2022-10-31T07:50:56.350Z,101579.72
2022-10-31T07:53:22.762Z,101576.97
2022-10-31T07:55:49.225Z,101568.53
2022-10-31T07:58:17.251Z,101573.75
2022-10-31T08:00:45.661Z,101566.69
2022-10-31T08:03:14.820Z,101575.50
2022-10-31T08:05:42.115Z,101579.91
2022-10-31T08:08:09.506Z,101587.28
2022-10-31T08:10:36.723Z,101587.22
2022-10-31T08:13:08.407Z,101587.91
2022-10-31T08:15:38.032Z,101586.13
2022-10-31T08:18:05.583Z,101580.00
2022-10-31T08:20:32.231Z,101583.41
2022-10-31T08:23:07.688Z,101583.16
2022-10-31T08:25:38.545Z,101587.63
2022-10-31T08:28:06.960Z,101587.94
2022-10-31T08:30:35.674Z,101584.66
2022-10-31T08:33:07.554Z,101579.56
2022-10-31T08:35:34.416Z,101578.50
2022-10-31T08:38:01.247Z,101581.44
2022-10-31T08:40:29.463Z,101580.28
2022-10-31T08:43:05.051Z,101577.66
2022-10-31T08:45:33.349Z,101565.44
2022-10-31T08:48:02.011Z,101569.09
2022-10-31T08:50:30.197Z,101569.84
2022-10-31T08:53:07.402Z,101571.56
2022-10-31T08:55:36.353Z,101573.06
2022-10-31T08:58:04.759Z,101574.97
2022-10-31T09:00:32.149Z,101579.63
2022-10-31T09:02:59.819Z,101583.44
2022-10-31T09:05:26.745Z,101582.28
2022-10-31T09:07:58.625Z,101587.13
2022-10-31T09:10:26.695Z,101587.59
2022-10-31T09:12:59.866Z,101583.25
2022-10-31T09:15:27.560Z,101587.78
2022-10-31T09:17:54.026Z,101577.66
2022-10-31T09:20:21.258Z,101573.41
2022-10-31T09:22:47.680Z,101566.88
2022-10-31T09:25:14.270Z,101567.06
2022-10-31T09:27:40.692Z,101568.31
2022-10-31T09:30:07.683Z,101557.97
2022-10-31T09:32:34.079Z,101564.81
2022-10-31T09:35:00.552Z,101572.28
2022-10-31T09:37:27.069Z,101567.78
2022-10-31T09:39:53.540Z,101572.44
2022-10-31T09:42:22.554Z,101575.94
2022-10-31T09:44:57.724Z,101574.00
2022-10-31T09:47:42.798Z,101574.59
2022-10-31T09:50:20.097Z,101573.56
2022-10-31T09:53:01.868Z,101570.53
2022-10-31T09:55:38.148Z,101575.41
2022-10-31T09:58:05.709Z,101580.53
2022-10-31T10:00:33.244Z,101583.47
2022-10-31T10:03:05.849Z,101583.13
2022-10-31T10:05:50.481Z,101585.84
2022-10-31T10:08:24.553Z,101583.56
2022-10-31T10:11:18.504Z,101590.28
2022-10-31T10:13:57.368Z,101590.94
2022-10-31T10:16:48.344Z,101591.16
2022-10-31T10:19:34.496Z,101579.56
2022-10-31T10:22:21.138Z,101573.22
2022-10-31T10:25:03.136Z,101578.91
2022-10-31T10:27:47.846Z,101577.19
2022-10-31T10:30:18.315Z,101575.78
2022-10-31T10:32:58.468Z,101566.56
2022-10-31T10:35:32.214Z,101572.94
2022-10-31T10:38:10.790Z,101566.47
2022-10-31T10:40:38.942Z,101573.28
2022-10-31T10:43:27.706Z,101574.59
2022-10-31T10:46:30.643Z,101567.72
2022-10-31T10:49:25.907Z,101563.41
2022-10-31T10:52:12.764Z,101564.91
2022-10-31T10:55:17.019Z,101558.34
2022-10-31T10:57:56.184Z,101556.41
2022-10-31T11:00:26.102Z,101552.13
2022-10-31T11:02:53.291Z,101547.28
2022-10-31T11:05:35.514Z,101536.25
2022-10-31T11:08:02.445Z,101534.03
2022-10-31T11:10:29.211Z,101522.41
2022-10-31T11:13:13.595Z,101523.00
2022-10-31T11:15:54.899Z,101528.25
2022-10-31T11:18:27.362Z,101522.03
2022-10-31T11:20:59.939Z,101518.78
2022-10-31T11:23:28.571Z,101524.41
2022-10-31T11:26:07.338Z,101515.25
2022-10-31T11:28:37.542Z,101521.59
2022-10-31T11:31:15.260Z,101510.75
2022-10-31T11:33:56.532Z,101510.94
2022-10-31T11:36:26.641Z,101505.31
2022-10-31T11:38:54.529Z,101504.13
2022-10-31T11:41:28.543Z,101506.31
2022-10-31T11:44:05.289Z,101498.06
2022-10-31T11:46:44.503Z,101493.25
2022-10-31T11:49:22.065Z,101491.22
2022-10-31T11:51:56.035Z,101493.78
2022-10-31T11:54:29.474Z,101486.88
2022-10-31T11:56:56.358Z,101482.03
2022-10-31T11:59:29.396Z,101474.19
2022-10-31T12:01:59.298Z,101480.94
2022-10-31T12:04:41.283Z,101475.91
2022-10-31T12:07:07.765Z,101464.63
2022-10-31T12:09:36.792Z,101464.41
2022-10-31T12:12:15.206Z,101459.53
2022-10-31T12:15:21.831Z,101457.06
2022-10-31T12:18:33.467Z,101450.13
2022-10-31T12:21:18.620Z,101447.13
2022-10-31T12:23:57.198Z,101447.66
2022-10-31T12:26:42.235Z,101447.94
2022-10-31T12:29:33.054Z,101445.56
2022-10-31T12:32:25.344Z,101441.22
2022-10-31T12:35:10.875Z,101443.75
2022-10-31T12:38:02.062Z,101440.09
2022-10-31T12:40:57.247Z,101434.56
2022-10-31T12:43:45.490Z,101428.06
2022-10-31T12:47:03.176Z,101427.84
2022-10-31T12:50:03.033Z,101424.72
2022-10-31T12:52:55.499Z,101422.09
2022-10-31T12:55:43.874Z,101424.28
2022-10-31T12:58:22.564Z,101418.22
2022-10-31T13:00:57.827Z,101414.59
2022-10-31T13:03:40.262Z,101405.41
2022-10-31T13:06:11.291Z,101407.84
2022-10-31T13:08:47.073Z,101409.63
2022-10-31T13:11:19.299Z,101405.66
2022-10-31T13:14:00.954Z,101404.59
2022-10-31T13:16:33.877Z,101398.25
2022-10-31T13:19:04.912Z,101396.25
2022-10-31T13:21:37.943Z,101388.16
2022-10-31T13:24:09.572Z,101391.59
2022-10-31T13:26:48.411Z,101382.13
2022-10-31T13:29:32.604Z,101382.56
2022-10-31T13:32:01.857Z,101374.25
2022-10-31T13:34:41.346Z,101369.50
2022-10-31T13:37:16.980Z,101370.47
2022-10-31T13:40:11.991Z,101361.84
2022-10-31T13:42:43.012Z,101362.16
2022-10-31T13:45:21.432Z,101366.88
2022-10-31T13:48:16.460Z,101366.19
2022-10-31T13:50:55.454Z,101351.94
2022-10-31T13:53:24.018Z,101347.94
2022-10-31T13:56:06.358Z,101349.66
2022-10-31T13:58:33.148Z,101346.97
2022-10-31T14:01:21.693Z,101353.91
2022-10-31T14:04:20.769Z,101356.34
2022-10-31T14:07:08.315Z,101347.13
2022-10-31T14:09:56.612Z,101346.72
2022-10-31T14:12:26.459Z,101347.88
2022-10-31T14:14:58.081Z,101342.00
2022-10-31T14:17:33.821Z,101342.06
2022-10-31T14:20:33.376Z,101340.19
2022-10-31T14:23:10.893Z,101347.09
2022-10-31T14:25:37.869Z,101340.72
2022-10-31T14:28:31.886Z,101344.63
2022-10-31T14:31:00.506Z,101334.94
2022-10-31T14:33:30.678Z,101336.38
2022-10-31T14:36:23.143Z,101334.47
2022-10-31T14:39:23.125Z,101330.97
2022-10-31T14:42:15.688Z,101328.09
2022-10-31T14:45:00.947Z,101324.97
2022-10-31T14:47:33.911Z,101328.84
2022-10-31T14:50:21.666Z,101318.63
2022-10-31T14:52:52.348Z,101329.19
2022-10-31T14:55:19.576Z,101319.44
2022-10-31T14:57:53.646Z,101321.72
2022-10-31T15:00:23.148Z,101319.47
2022-10-31T15:03:08.352Z,101318.34
2022-10-31T15:05:42.688Z,101317.47
2022-10-31T15:08:30.238Z,101325.75
2022-10-31T15:10:56.726Z,101318.88
2022-10-31T15:13:23.422Z,101316.38
2022-10-31T15:15:55.496Z,101314.19
2022-10-31T15:18:25.906Z,101315.84
2022-10-31T15:20:54.395Z,101315.72
2022-10-31T15:23:28.232Z,101312.72
2022-10-31T15:26:03.655Z,101301.41
2022-10-31T15:28:32.191Z,101307.56
2022-10-31T15:31:01.828Z,101308.94
2022-10-31T15:33:45.339Z,101311.56
2022-10-31T15:36:28.641Z,101313.88
2022-10-31T15:38:58.142Z,101308.75
2022-10-31T15:41:29.517Z,101308.00
2022-10-31T15:43:58.894Z,101312.63
2022-10-31T15:46:25.409Z,101313.66
2022-10-31T15:48:51.876Z,101310.47
2022-10-31T15:51:27.111Z,101313.38
2022-10-31T15:53:55.425Z,101306.03
2022-10-31T15:56:26.485Z,101311.03
2022-10-31T15:58:55.324Z,101315.06
2022-10-31T16:01:21.754Z,101310.34
2022-10-31T16:04:12.816Z,101303.59
2022-10-31T16:06:40.115Z,101301.41
2022-10-31T16:09:23.306Z,101294.78
2022-10-31T16:11:50.305Z,101300.59
2022-10-31T16:14:25.505Z,101301.31
2022-10-31T16:16:59.852Z,101305.38
2022-10-31T16:19:37.551Z,101307.00
2022-10-31T16:22:14.512Z,101305.19
2022-10-31T16:24:56.159Z,101314.03
2022-10-31T16:27:27.951Z,101314.59
2022-10-31T16:29:54.752Z,101315.00
2022-10-31T16:32:27.335Z,101315.97
2022-10-31T16:35:08.852Z,101321.34
2022-10-31T16:37:38.079Z,101321.72
2022-10-31T16:40:04.998Z,101319.56
2022-10-31T16:42:31.454Z,101327.06
2022-10-31T16:44:58.024Z,101329.13
2022-10-31T16:47:27.573Z,101340.78
2022-10-31T16:49:55.241Z,101339.78
2022-10-31T16:52:21.939Z,101343.88
2022-10-31T16:54:48.506Z,101347.19
2022-10-31T16:57:18.400Z,101352.06
2022-10-31T16:59:54.704Z,101356.63
2022-10-31T17:02:21.963Z,101355.28
2022-10-31T17:04:50.855Z,101361.72
2022-10-31T17:07:20.357Z,101364.78
2022-10-31T17:09:46.881Z,101366.34
2022-10-31T17:12:21.212Z,101373.75
2022-10-31T17:14:51.546Z,101378.03
2022-10-31T17:17:18.137Z,101380.06
2022-10-31T17:19:44.541Z,101376.94
2022-10-31T17:22:14.999Z,101388.91
2022-10-31T17:24:41.468Z,101387.94
2022-10-31T17:27:07.955Z,101385.22
2022-10-31T17:29:35.347Z,101397.06
2022-10-31T17:32:03.809Z,101388.31
2022-10-31T17:34:30.950Z,101390.34
2022-10-31T17:36:57.378Z,101396.19
2022-10-31T17:39:23.794Z,101392.81
2022-10-31T17:41:51.639Z,101397.09
2022-10-31T17:44:19.047Z,101404.34
2022-10-31T17:46:45.619Z,101406.81
2022-10-31T17:49:12.452Z,101402.25
2022-10-31T17:51:39.191Z,101404.16
2022-10-31T17:54:09.176Z,101400.38
2022-10-31T17:56:35.615Z,101402.75
2022-10-31T17:59:02.428Z,101409.22
2022-10-31T18:01:29.074Z,101408.97
2022-10-31T18:03:55.659Z,101417.53
2022-10-31T18:06:22.171Z,101419.59
2022-10-31T18:08:48.596Z,101411.56
2022-10-31T18:11:20.884Z,101416.41
2022-10-31T18:13:47.318Z,101418.06
2022-10-31T18:16:16.555Z,101418.50
2022-10-31T18:18:43.155Z,101426.38
2022-10-31T18:21:09.695Z,101421.19
2022-10-31T18:23:36.278Z,101430.66
2022-10-31T18:26:03.214Z,101439.28
2022-10-31T18:28:29.689Z,101436.59
2022-10-31T18:30:59.611Z,101437.44
2022-10-31T18:33:26.250Z,101441.28
2022-10-31T18:35:52.677Z,101431.56
2022-10-31T18:38:19.167Z,101433.56
2022-10-31T18:40:45.678Z,101432.25
2022-10-31T18:43:12.148Z,101430.91
2022-10-31T18:45:48.084Z,101428.22
2022-10-31T18:48:17.309Z,101429.34
2022-10-31T18:50:44.111Z,101423.94
2022-10-31T18:53:10.674Z,101426.25
2022-10-31T18:55:44.050Z,101425.22
2022-10-31T18:58:14.084Z,101420.22
2022-10-31T19:00:40.812Z,101416.84
2022-10-31T19:03:07.302Z,101416.69
2022-10-31T19:05:33.790Z,101425.03
2022-10-31T19:08:00.210Z,101422.22
2022-10-31T19:10:26.652Z,101428.59
2022-10-31T19:12:53.060Z,101424.06
2022-10-31T19:15:19.680Z,101418.88
2022-10-31T19:17:46.530Z,101421.38
2022-10-31T19:20:14.016Z,101425.22
2022-10-31T19:22:40.437Z,101425.38
2022-10-31T19:25:10.641Z,101426.78
2022-10-31T19:27:37.492Z,101432.50
2022-10-31T19:30:05.377Z,101433.41
2022-10-31T19:32:31.896Z,101436.50
2022-10-31T19:34:58.346Z,101438.06
2022-10-31T19:37:25.241Z,101440.91
2022-10-31T19:39:52.567Z,101444.28
2022-10-31T19:42:19.000Z,101441.13
2022-10-31T19:44:45.469Z,101441.91
2022-10-31T19:47:12.173Z,101445.56
2022-10-31T19:49:38.627Z,101449.66
2022-10-31T19:52:05.219Z,101450.94
2022-10-31T19:54:32.128Z,101448.59
2022-10-31T19:56:58.641Z,101450.66
2022-10-31T19:59:26.155Z,101454.78
2022-10-31T20:01:52.704Z,101455.41
2022-10-31T20:04:19.206Z,101453.53
2022-10-31T20:06:45.689Z,101460.28
2022-10-31T20:09:13.796Z,101452.28
2022-10-31T20:11:41.895Z,101461.97
2022-10-31T20:14:10.358Z,101459.22
2022-10-31T20:16:36.829Z,101452.97
2022-10-31T20:19:03.803Z,101454.66
2022-10-31T20:21:32.096Z,101448.31
2022-10-31T20:24:00.460Z,101447.44
2022-10-31T20:26:27.927Z,101464.78
2022-10-31T20:28:58.446Z,101461.28
2022-10-31T20:31:27.890Z,101458.69
2022-10-31T20:33:55.702Z,101460.38
2022-10-31T20:36:23.329Z,101459.34
2022-10-31T20:38:51.250Z,101471.59
2022-10-31T20:41:18.295Z,101472.88
2022-10-31T20:43:44.944Z,101470.84
2022-10-31T20:46:14.334Z,101470.03
2022-10-31T20:48:41.232Z,101472.72
2022-10-31T20:51:12.552Z,101470.34
2022-10-31T20:53:39.076Z,101473.66
2022-10-31T20:56:08.138Z,101478.44
2022-10-31T20:58:39.277Z,101477.78
2022-10-31T21:01:08.357Z,101481.91
2022-10-31T21:03:36.511Z,101479.09
2022-10-31T21:06:04.328Z,101479.22
2022-10-31T21:08:32.701Z,101483.94
2022-10-31T21:11:00.566Z,101482.19
2022-10-31T21:13:28.437Z,101481.34
2022-10-31T21:16:02.978Z,101481.50
2022-10-31T21:18:29.920Z,101475.97
2022-10-31T21:20:56.455Z,101483.72
2022-10-31T21:23:23.183Z,101477.28
2022-10-31T21:25:49.622Z,101478.75
2022-10-31T21:28:16.081Z,101481.22
2022-10-31T21:30:44.715Z,101482.41
2022-10-31T21:33:11.425Z,101478.50
2022-10-31T21:35:37.966Z,101474.97
2022-10-31T21:38:04.827Z,101476.19
2022-10-31T21:40:31.529Z,101480.72
2022-10-31T21:42:58.386Z,101485.63
2022-10-31T21:45:25.040Z,101486.25
2022-10-31T21:47:51.507Z,101481.09
2022-10-31T21:50:18.043Z,101481.63
2022-10-31T21:52:44.469Z,101479.19
2022-10-31T21:55:11.028Z,101477.91
2022-10-31T21:57:37.730Z,101480.72
2022-10-31T22:00:07.013Z,101474.50
2022-10-31T22:02:33.465Z,101477.59
2022-10-31T22:05:00.240Z,101479.31
2022-10-31T22:07:26.733Z,101481.28
2022-10-31T22:09:53.125Z,101490.72
2022-10-31T22:12:19.567Z,101484.25
2022-10-31T22:14:45.953Z,101484.28
2022-10-31T22:17:13.420Z,101487.34
2022-10-31T22:19:39.940Z,101485.06
2022-10-31T22:22:06.355Z,101481.91
2022-10-31T22:24:32.743Z,101483.22
2022-10-31T22:26:59.857Z,101489.75
2022-10-31T22:29:28.771Z,101482.69
2022-10-31T22:31:58.804Z,101484.38
2022-10-31T22:34:27.972Z,101480.50
2022-10-31T22:36:55.321Z,101478.97
2022-10-31T22:39:21.794Z,101471.97
2022-10-31T22:41:48.183Z,101482.00
2022-10-31T22:44:14.620Z,101473.31
2022-10-31T22:46:41.144Z,101463.09
2022-10-31T22:49:16.577Z,101470.91
2022-10-31T22:51:44.037Z,101470.63
2022-10-31T22:54:15.809Z,101464.94
2022-10-31T22:56:42.602Z,101465.78
2022-10-31T22:59:15.394Z,101478.47
2022-10-31T23:01:44.858Z,101467.66
2022-10-31T23:06:43.687Z,101458.66
2022-10-31T23:09:13.915Z,101455.50
2022-10-31T23:11:40.626Z,101462.41
2022-10-31T23:14:13.418Z,101460.41
2022-10-31T23:16:51.725Z,101456.34
2022-10-31T23:19:29.831Z,101449.00
2022-10-31T23:22:00.172Z,101458.97
2022-10-31T23:24:39.115Z,101451.16
2022-10-31T23:27:12.858Z,101460.06
2022-10-31T23:29:46.765Z,101454.97
2022-10-31T23:32:35.218Z,101460.53
2022-10-31T23:35:07.046Z,101451.13
2022-10-31T23:37:35.724Z,101458.59
2022-10-31T23:40:02.194Z,101454.19
2022-10-31T23:42:29.027Z,101458.28
2022-10-31T23:44:56.242Z,101451.06
2022-10-31T23:47:23.124Z,101448.72
2022-10-31T23:49:49.960Z,101460.09
2022-10-31T23:52:17.582Z,101450.59
2022-10-31T23:54:44.233Z,101453.34
2022-10-31T23:57:12.998Z,101454.63
2022-10-31T23:59:39.581Z,101451.53
